sensor_id;sensor_type;location;lat;lon;timestamp;P1;durP1;ratioP1;P2;durP2;ratioP2
73550;SDS011;61816;53.582;10.096;2023-03-01T00:01:21;51.30;;;19.83;;
73550;SDS011;61816;53.582;10.096;2023-03-01T00:03:48;58.77;;;20.57;;
73550;SDS011;61816;53.582;10.096;2023-03-01T00:06:15;49.30;;;21.57;;
73550;SDS011;61816;53.582;10.096;2023-03-01T00:08:41;55.27;;;24.17;;
73550;SDS011;61816;53.582;10.096;2023-03-01T00:11:07;50.07;;;21.50;;
73550;SDS011;61816;53.582;10.096;2023-03-01T00:13:36;49.10;;;22.03;;
73550;SDS011;61816;53.582;10.096;2023-03-01T00:16:07;47.63;;;21.00;;
73550;SDS011;61816;53.582;10.096;2023-03-01T00:18:34;55.03;;;21.60;;
73550;SDS011;61816;53.582;10.096;2023-03-01T00:20:59;48.13;;;21.00;;
73550;SDS011;61816;53.582;10.096;2023-03-01T00:23:25;47.70;;;21.13;;
73550;SDS011;61816;53.582;10.096;2023-03-01T00:25:51;48.40;;;21.83;;
73550;SDS011;61816;53.582;10.096;2023-03-01T00:28:17;51.37;;;22.47;;
73550;SDS011;61816;53.582;10.096;2023-03-01T00:30:44;51.90;;;20.87;;
73550;SDS011;61816;53.582;10.096;2023-03-01T00:33:10;53.33;;;21.87;;
73550;SDS011;61816;53.582;10.096;2023-03-01T00:35:35;50.03;;;21.73;;
73550;SDS011;61816;53.582;10.096;2023-03-01T00:38:01;56.00;;;20.93;;
73550;SDS011;61816;53.582;10.096;2023-03-01T00:40:28;52.17;;;22.37;;
73550;SDS011;61816;53.582;10.096;2023-03-01T00:42:57;52.47;;;21.10;;
73550;SDS011;61816;53.582;10.096;2023-03-01T00:45:22;52.83;;;22.47;;
73550;SDS011;61816;53.582;10.096;2023-03-01T00:47:48;44.20;;;20.63;;
73550;SDS011;61816;53.582;10.096;2023-03-01T00:50:15;47.90;;;20.73;;
73550;SDS011;61816;53.582;10.096;2023-03-01T00:52:40;61.17;;;23.40;;
73550;SDS011;61816;53.582;10.096;2023-03-01T00:55:06;52.53;;;19.93;;
73550;SDS011;61816;53.582;10.096;2023-03-01T00:57:32;51.30;;;23.37;;
73550;SDS011;61816;53.582;10.096;2023-03-01T00:59:57;45.70;;;21.27;;
73550;SDS011;61816;53.582;10.096;2023-03-01T01:02:23;67.17;;;21.90;;
73550;SDS011;61816;53.582;10.096;2023-03-01T01:04:48;51.30;;;21.67;;
73550;SDS011;61816;53.582;10.096;2023-03-01T01:07:14;55.87;;;22.37;;
73550;SDS011;61816;53.582;10.096;2023-03-01T01:09:40;56.37;;;21.73;;
73550;SDS011;61816;53.582;10.096;2023-03-01T01:12:05;52.87;;;22.40;;
73550;SDS011;61816;53.582;10.096;2023-03-01T01:14:31;46.03;;;20.77;;
73550;SDS011;61816;53.582;10.096;2023-03-01T01:16:56;50.20;;;21.43;;
73550;SDS011;61816;53.582;10.096;2023-03-01T01:19:22;48.27;;;20.90;;
73550;SDS011;61816;53.582;10.096;2023-03-01T01:21:48;51.03;;;20.23;;
73550;SDS011;61816;53.582;10.096;2023-03-01T01:24:14;56.13;;;21.30;;
73550;SDS011;61816;53.582;10.096;2023-03-01T01:26:40;49.50;;;20.87;;
73550;SDS011;61816;53.582;10.096;2023-03-01T01:29:06;50.87;;;20.93;;
73550;SDS011;61816;53.582;10.096;2023-03-01T01:31:32;52.37;;;20.93;;
73550;SDS011;61816;53.582;10.096;2023-03-01T01:33:59;46.23;;;19.07;;
73550;SDS011;61816;53.582;10.096;2023-03-01T01:36:25;48.90;;;22.47;;
73550;SDS011;61816;53.582;10.096;2023-03-01T01:38:51;50.77;;;22.23;;
73550;SDS011;61816;53.582;10.096;2023-03-01T01:41:16;52.87;;;20.90;;
73550;SDS011;61816;53.582;10.096;2023-03-01T01:43:44;60.67;;;24.23;;
73550;SDS011;61816;53.582;10.096;2023-03-01T01:46:25;49.63;;;21.77;;
73550;SDS011;61816;53.582;10.096;2023-03-01T01:49:09;52.67;;;22.20;;
73550;SDS011;61816;53.582;10.096;2023-03-01T01:51:43;61.70;;;20.20;;
73550;SDS011;61816;53.582;10.096;2023-03-01T01:54:15;54.83;;;21.83;;
73550;SDS011;61816;53.582;10.096;2023-03-01T01:56:48;46.97;;;19.77;;
73550;SDS011;61816;53.582;10.096;2023-03-01T01:59:20;42.23;;;19.60;;
73550;SDS011;61816;53.582;10.096;2023-03-01T02:01:49;42.73;;;18.63;;
73550;SDS011;61816;53.582;10.096;2023-03-01T02:04:16;38.57;;;17.53;;
73550;SDS011;61816;53.582;10.096;2023-03-01T02:06:49;46.73;;;19.17;;
73550;SDS011;61816;53.582;10.096;2023-03-01T02:09:21;46.80;;;18.33;;
73550;SDS011;61816;53.582;10.096;2023-03-01T02:11:48;40.17;;;17.40;;
73550;SDS011;61816;53.582;10.096;2023-03-01T02:14:15;43.73;;;19.40;;
73550;SDS011;61816;53.582;10.096;2023-03-01T02:16:42;42.30;;;18.50;;
73550;SDS011;61816;53.582;10.096;2023-03-01T02:19:08;40.43;;;18.03;;
73550;SDS011;61816;53.582;10.096;2023-03-01T02:21:48;42.33;;;18.93;;
73550;SDS011;61816;53.582;10.096;2023-03-01T02:27:17;41.77;;;19.07;;
73550;SDS011;61816;53.582;10.096;2023-03-01T02:29:47;44.97;;;19.20;;
73550;SDS011;61816;53.582;10.096;2023-03-01T02:32:12;41.77;;;18.27;;
73550;SDS011;61816;53.582;10.096;2023-03-01T02:34:40;42.77;;;17.50;;
73550;SDS011;61816;53.582;10.096;2023-03-01T02:37:10;50.03;;;18.20;;
73550;SDS011;61816;53.582;10.096;2023-03-01T02:39:40;43.27;;;18.27;;
73550;SDS011;61816;53.582;10.096;2023-03-01T02:42:13;46.03;;;18.90;;
73550;SDS011;61816;53.582;10.096;2023-03-01T02:44:42;47.87;;;17.17;;
73550;SDS011;61816;53.582;10.096;2023-03-01T02:47:07;37.97;;;16.70;;
73550;SDS011;61816;53.582;10.096;2023-03-01T02:49:34;40.13;;;17.17;;
73550;SDS011;61816;53.582;10.096;2023-03-01T02:52:04;41.40;;;17.23;;
73550;SDS011;61816;53.582;10.096;2023-03-01T02:54:43;42.20;;;17.60;;
73550;SDS011;61816;53.582;10.096;2023-03-01T02:57:25;38.37;;;16.17;;
73550;SDS011;61816;53.582;10.096;2023-03-01T02:59:53;33.20;;;16.27;;
73550;SDS011;61816;53.582;10.096;2023-03-01T03:02:21;42.73;;;15.80;;
73550;SDS011;61816;53.582;10.096;2023-03-01T03:05:43;36.33;;;16.33;;
73550;SDS011;61816;53.582;10.096;2023-03-01T03:07:51;41.23;;;15.43;;
73550;SDS011;61816;53.582;10.096;2023-03-01T03:10:19;38.47;;;16.23;;
73550;SDS011;61816;53.582;10.096;2023-03-01T03:12:51;39.30;;;17.20;;
73550;SDS011;61816;53.582;10.096;2023-03-01T03:15:19;37.77;;;16.80;;
73550;SDS011;61816;53.582;10.096;2023-03-01T03:17:45;44.27;;;16.10;;
73550;SDS011;61816;53.582;10.096;2023-03-01T03:20:12;36.43;;;15.83;;
73550;SDS011;61816;53.582;10.096;2023-03-01T03:22:44;38.17;;;17.50;;
73550;SDS011;61816;53.582;10.096;2023-03-01T03:25:11;38.63;;;17.07;;
73550;SDS011;61816;53.582;10.096;2023-03-01T03:27:40;36.43;;;17.37;;
73550;SDS011;61816;53.582;10.096;2023-03-01T03:30:08;31.65;;;15.23;;
73550;SDS011;61816;53.582;10.096;2023-03-01T03:32:37;38.37;;;15.43;;
73550;SDS011;61816;53.582;10.096;2023-03-01T03:35:03;35.13;;;16.30;;
73550;SDS011;61816;53.582;10.096;2023-03-01T03:37:38;29.67;;;15.63;;
73550;SDS011;61816;53.582;10.096;2023-03-01T03:40:23;33.37;;;15.97;;
73550;SDS011;61816;53.582;10.096;2023-03-01T03:42:49;44.93;;;16.83;;
73550;SDS011;61816;53.582;10.096;2023-03-01T03:45:15;38.93;;;16.17;;
73550;SDS011;61816;53.582;10.096;2023-03-01T03:47:41;37.17;;;17.13;;
73550;SDS011;61816;53.582;10.096;2023-03-01T03:50:08;39.83;;;16.20;;
73550;SDS011;61816;53.582;10.096;2023-03-01T03:52:35;36.33;;;16.07;;
73550;SDS011;61816;53.582;10.096;2023-03-01T03:55:00;36.87;;;15.70;;
73550;SDS011;61816;53.582;10.096;2023-03-01T03:57:25;33.13;;;14.67;;
73550;SDS011;61816;53.582;10.096;2023-03-01T03:59:51;32.07;;;14.33;;
73550;SDS011;61816;53.582;10.096;2023-03-01T04:02:16;33.30;;;15.60;;
73550;SDS011;61816;53.582;10.096;2023-03-01T04:04:47;35.97;;;15.67;;
73550;SDS011;61816;53.582;10.096;2023-03-01T04:07:15;38.20;;;14.80;;
73550;SDS011;61816;53.582;10.096;2023-03-01T04:09:41;33.17;;;14.90;;
73550;SDS011;61816;53.582;10.096;2023-03-01T04:12:07;32.47;;;15.00;;
73550;SDS011;61816;53.582;10.096;2023-03-01T04:14:33;44.20;;;15.03;;
73550;SDS011;61816;53.582;10.096;2023-03-01T04:16:58;43.90;;;15.63;;
73550;SDS011;61816;53.582;10.096;2023-03-01T04:19:23;44.43;;;15.53;;
73550;SDS011;61816;53.582;10.096;2023-03-01T04:21:49;38.27;;;14.27;;
73550;SDS011;61816;53.582;10.096;2023-03-01T04:24:15;43.30;;;14.97;;
73550;SDS011;61816;53.582;10.096;2023-03-01T04:26:40;33.00;;;14.47;;
73550;SDS011;61816;53.582;10.096;2023-03-01T04:29:05;41.43;;;14.63;;
73550;SDS011;61816;53.582;10.096;2023-03-01T04:31:31;31.67;;;12.90;;
73550;SDS011;61816;53.582;10.096;2023-03-01T04:33:57;32.47;;;14.30;;
73550;SDS011;61816;53.582;10.096;2023-03-01T04:36:23;36.37;;;14.77;;
73550;SDS011;61816;53.582;10.096;2023-03-01T04:38:50;30.27;;;14.10;;
73550;SDS011;61816;53.582;10.096;2023-03-01T04:41:17;31.63;;;14.70;;
73550;SDS011;61816;53.582;10.096;2023-03-01T04:43:44;40.63;;;14.87;;
73550;SDS011;61816;53.582;10.096;2023-03-01T04:46:13;30.17;;;14.07;;
73550;SDS011;61816;53.582;10.096;2023-03-01T04:48:40;32.88;;;14.70;;
73550;SDS011;61816;53.582;10.096;2023-03-01T04:51:07;37.63;;;14.87;;
73550;SDS011;61816;53.582;10.096;2023-03-01T04:53:33;29.43;;;15.17;;
73550;SDS011;61816;53.582;10.096;2023-03-01T04:56:01;36.42;;;14.30;;
73550;SDS011;61816;53.582;10.096;2023-03-01T04:58:27;30.77;;;14.13;;
73550;SDS011;61816;53.582;10.096;2023-03-01T05:00:53;35.60;;;14.20;;
73550;SDS011;61816;53.582;10.096;2023-03-01T05:03:20;33.47;;;13.83;;
73550;SDS011;61816;53.582;10.096;2023-03-01T05:05:46;36.35;;;14.38;;
73550;SDS011;61816;53.582;10.096;2023-03-01T05:08:14;28.77;;;13.68;;
73550;SDS011;61816;53.582;10.096;2023-03-01T05:11:01;36.70;;;13.80;;
73550;SDS011;61816;53.582;10.096;2023-03-01T05:13:26;31.53;;;13.67;;
73550;SDS011;61816;53.582;10.096;2023-03-01T05:15:54;29.97;;;13.63;;
73550;SDS011;61816;53.582;10.096;2023-03-01T05:18:24;41.27;;;14.10;;
73550;SDS011;61816;53.582;10.096;2023-03-01T05:20:56;30.93;;;14.03;;
73550;SDS011;61816;53.582;10.096;2023-03-01T05:23:29;29.92;;;14.18;;
73550;SDS011;61816;53.582;10.096;2023-03-01T05:25:57;34.37;;;13.60;;
73550;SDS011;61816;53.582;10.096;2023-03-01T05:28:24;31.63;;;13.50;;
73550;SDS011;61816;53.582;10.096;2023-03-01T05:30:50;29.73;;;13.17;;
73550;SDS011;61816;53.582;10.096;2023-03-01T05:33:16;29.27;;;13.57;;
73550;SDS011;61816;53.582;10.096;2023-03-01T05:35:42;32.27;;;13.97;;
73550;SDS011;61816;53.582;10.096;2023-03-01T05:38:09;28.17;;;13.60;;
73550;SDS011;61816;53.582;10.096;2023-03-01T05:40:38;25.30;;;13.88;;
73550;SDS011;61816;53.582;10.096;2023-03-01T05:43:03;37.07;;;14.77;;
73550;SDS011;61816;53.582;10.096;2023-03-01T05:45:30;32.33;;;14.87;;
73550;SDS011;61816;53.582;10.096;2023-03-01T05:47:57;29.83;;;13.75;;
73550;SDS011;61816;53.582;10.096;2023-03-01T05:50:23;34.63;;;15.43;;
73550;SDS011;61816;53.582;10.096;2023-03-01T05:52:52;30.70;;;14.77;;
73550;SDS011;61816;53.582;10.096;2023-03-01T05:55:22;38.50;;;16.98;;
73550;SDS011;61816;53.582;10.096;2023-03-01T05:57:48;43.80;;;17.08;;
73550;SDS011;61816;53.582;10.096;2023-03-01T06:00:15;41.47;;;15.40;;
73550;SDS011;61816;53.582;10.096;2023-03-01T06:02:43;44.57;;;17.03;;
73550;SDS011;61816;53.582;10.096;2023-03-01T06:05:09;34.83;;;14.32;;
73550;SDS011;61816;53.582;10.096;2023-03-01T06:07:35;30.95;;;12.57;;
73550;SDS011;61816;53.582;10.096;2023-03-01T06:10:02;24.60;;;12.70;;
73550;SDS011;61816;53.582;10.096;2023-03-01T06:12:32;39.28;;;14.68;;
73550;SDS011;61816;53.582;10.096;2023-03-01T06:14:59;34.70;;;15.25;;
73550;SDS011;61816;53.582;10.096;2023-03-01T06:17:24;42.67;;;13.93;;
73550;SDS011;61816;53.582;10.096;2023-03-01T06:19:50;30.23;;;14.23;;
73550;SDS011;61816;53.582;10.096;2023-03-01T06:22:15;29.58;;;12.60;;
73550;SDS011;61816;53.582;10.096;2023-03-01T06:24:41;40.37;;;13.80;;
73550;SDS011;61816;53.582;10.096;2023-03-01T06:27:06;32.10;;;14.93;;
73550;SDS011;61816;53.582;10.096;2023-03-01T06:29:32;39.20;;;15.77;;
73550;SDS011;61816;53.582;10.096;2023-03-01T06:31:57;43.43;;;15.77;;
73550;SDS011;61816;53.582;10.096;2023-03-01T06:34:22;33.35;;;14.73;;
73550;SDS011;61816;53.582;10.096;2023-03-01T06:36:48;23.70;;;12.60;;
73550;SDS011;61816;53.582;10.096;2023-03-01T06:39:13;32.05;;;13.73;;
73550;SDS011;61816;53.582;10.096;2023-03-01T06:41:38;26.25;;;13.48;;
73550;SDS011;61816;53.582;10.096;2023-03-01T06:44:04;28.08;;;13.82;;
73550;SDS011;61816;53.582;10.096;2023-03-01T06:46:29;31.08;;;12.85;;
73550;SDS011;61816;53.582;10.096;2023-03-01T06:48:55;31.98;;;14.20;;
73550;SDS011;61816;53.582;10.096;2023-03-01T06:51:20;29.67;;;14.35;;
73550;SDS011;61816;53.582;10.096;2023-03-01T06:53:46;23.13;;;12.45;;
73550;SDS011;61816;53.582;10.096;2023-03-01T06:56:11;30.60;;;13.00;;
73550;SDS011;61816;53.582;10.096;2023-03-01T06:58:37;51.45;;;13.05;;
73550;SDS011;61816;53.582;10.096;2023-03-01T07:01:06;28.63;;;13.00;;
73550;SDS011;61816;53.582;10.096;2023-03-01T07:03:32;30.08;;;11.73;;
73550;SDS011;61816;53.582;10.096;2023-03-01T07:05:57;29.38;;;11.60;;
73550;SDS011;61816;53.582;10.096;2023-03-01T07:08:22;24.17;;;10.80;;
73550;SDS011;61816;53.582;10.096;2023-03-01T07:10:48;19.98;;;10.65;;
73550;SDS011;61816;53.582;10.096;2023-03-01T07:13:14;23.60;;;9.80;;
73550;SDS011;61816;53.582;10.096;2023-03-01T07:15:39;20.60;;;9.90;;
73550;SDS011;61816;53.582;10.096;2023-03-01T07:18:05;26.23;;;9.63;;
73550;SDS011;61816;53.582;10.096;2023-03-01T07:20:30;21.95;;;10.80;;
73550;SDS011;61816;53.582;10.096;2023-03-01T07:22:56;19.08;;;9.63;;
73550;SDS011;61816;53.582;10.096;2023-03-01T07:25:23;24.85;;;9.23;;
73550;SDS011;61816;53.582;10.096;2023-03-01T07:27:50;20.60;;;9.18;;
73550;SDS011;61816;53.582;10.096;2023-03-01T07:30:16;24.13;;;11.35;;
73550;SDS011;61816;53.582;10.096;2023-03-01T07:32:42;19.67;;;10.35;;
73550;SDS011;61816;53.582;10.096;2023-03-01T07:35:07;23.85;;;10.82;;
73550;SDS011;61816;53.582;10.096;2023-03-01T07:37:33;32.55;;;11.00;;
73550;SDS011;61816;53.582;10.096;2023-03-01T07:39:58;21.65;;;9.40;;
73550;SDS011;61816;53.582;10.096;2023-03-01T07:42:23;26.02;;;11.45;;
73550;SDS011;61816;53.582;10.096;2023-03-01T07:44:49;27.85;;;10.68;;
73550;SDS011;61816;53.582;10.096;2023-03-01T07:47:14;21.35;;;9.82;;
73550;SDS011;61816;53.582;10.096;2023-03-01T07:49:39;26.10;;;9.73;;
73550;SDS011;61816;53.582;10.096;2023-03-01T07:52:05;24.83;;;10.55;;
73550;SDS011;61816;53.582;10.096;2023-03-01T07:54:30;27.23;;;11.63;;
73550;SDS011;61816;53.582;10.096;2023-03-01T07:56:56;23.77;;;10.52;;
73550;SDS011;61816;53.582;10.096;2023-03-01T07:59:22;27.48;;;11.82;;
73550;SDS011;61816;53.582;10.096;2023-03-01T08:01:48;30.52;;;12.95;;
73550;SDS011;61816;53.582;10.096;2023-03-01T08:04:14;23.75;;;11.90;;
73550;SDS011;61816;53.582;10.096;2023-03-01T08:06:39;26.75;;;12.73;;
73550;SDS011;61816;53.582;10.096;2023-03-01T08:09:05;23.92;;;13.60;;
73550;SDS011;61816;53.582;10.096;2023-03-01T08:11:30;43.17;;;13.55;;
73550;SDS011;61816;53.582;10.096;2023-03-01T08:13:55;39.72;;;15.10;;
73550;SDS011;61816;53.582;10.096;2023-03-01T08:16:21;29.40;;;15.32;;
73550;SDS011;61816;53.582;10.096;2023-03-01T08:18:46;28.45;;;14.65;;
73550;SDS011;61816;53.582;10.096;2023-03-01T08:21:13;33.13;;;15.23;;
73550;SDS011;61816;53.582;10.096;2023-03-01T08:23:41;31.25;;;14.88;;
73550;SDS011;61816;53.582;10.096;2023-03-01T08:26:08;26.77;;;14.63;;
73550;SDS011;61816;53.582;10.096;2023-03-01T08:28:35;34.28;;;14.77;;
73550;SDS011;61816;53.582;10.096;2023-03-01T08:31:01;30.10;;;14.80;;
73550;SDS011;61816;53.582;10.096;2023-03-01T08:33:27;29.48;;;15.18;;
73550;SDS011;61816;53.582;10.096;2023-03-01T08:35:52;28.67;;;14.73;;
73550;SDS011;61816;53.582;10.096;2023-03-01T08:38:17;30.08;;;15.23;;
73550;SDS011;61816;53.582;10.096;2023-03-01T08:40:43;43.15;;;13.75;;
73550;SDS011;61816;53.582;10.096;2023-03-01T08:43:08;27.02;;;14.10;;
73550;SDS011;61816;53.582;10.096;2023-03-01T08:45:33;27.92;;;13.80;;
73550;SDS011;61816;53.582;10.096;2023-03-01T08:47:59;30.42;;;13.77;;
73550;SDS011;61816;53.582;10.096;2023-03-01T08:50:25;33.90;;;14.93;;
73550;SDS011;61816;53.582;10.096;2023-03-01T08:52:51;31.30;;;16.02;;
73550;SDS011;61816;53.582;10.096;2023-03-01T08:55:16;28.88;;;12.00;;
73550;SDS011;61816;53.582;10.096;2023-03-01T08:57:42;31.65;;;14.40;;
73550;SDS011;61816;53.582;10.096;2023-03-01T09:00:08;29.45;;;14.35;;
73550;SDS011;61816;53.582;10.096;2023-03-01T09:02:36;26.73;;;13.23;;
73550;SDS011;61816;53.582;10.096;2023-03-01T09:05:02;33.17;;;14.52;;
73550;SDS011;61816;53.582;10.096;2023-03-01T09:07:28;31.85;;;15.52;;
73550;SDS011;61816;53.582;10.096;2023-03-01T09:09:53;32.80;;;15.35;;
73550;SDS011;61816;53.582;10.096;2023-03-01T09:12:20;28.75;;;14.82;;
73550;SDS011;61816;53.582;10.096;2023-03-01T09:14:46;31.48;;;16.38;;
73550;SDS011;61816;53.582;10.096;2023-03-01T09:17:11;34.00;;;15.23;;
73550;SDS011;61816;53.582;10.096;2023-03-01T09:19:37;33.97;;;14.25;;
73550;SDS011;61816;53.582;10.096;2023-03-01T09:22:03;42.53;;;16.25;;
73550;SDS011;61816;53.582;10.096;2023-03-01T09:24:28;30.52;;;15.48;;
73550;SDS011;61816;53.582;10.096;2023-03-01T09:26:54;29.08;;;15.10;;
73550;SDS011;61816;53.582;10.096;2023-03-01T09:29:20;33.53;;;16.65;;
73550;SDS011;61816;53.582;10.096;2023-03-01T09:31:46;31.17;;;15.68;;
73550;SDS011;61816;53.582;10.096;2023-03-01T09:34:11;32.92;;;15.70;;
73550;SDS011;61816;53.582;10.096;2023-03-01T09:36:38;30.75;;;16.70;;
73550;SDS011;61816;53.582;10.096;2023-03-01T09:39:04;31.63;;;14.85;;
73550;SDS011;61816;53.582;10.096;2023-03-01T09:41:38;30.63;;;16.40;;
73550;SDS011;61816;53.582;10.096;2023-03-01T09:44:11;29.08;;;15.35;;
73550;SDS011;61816;53.582;10.096;2023-03-01T09:46:44;38.20;;;16.77;;
73550;SDS011;61816;53.582;10.096;2023-03-01T09:49:12;27.15;;;16.40;;
73550;SDS011;61816;53.582;10.096;2023-03-01T09:51:42;48.28;;;16.77;;
73550;SDS011;61816;53.582;10.096;2023-03-01T09:54:19;32.90;;;16.05;;
73550;SDS011;61816;53.582;10.096;2023-03-01T09:56:57;35.05;;;17.85;;
73550;SDS011;61816;53.582;10.096;2023-03-01T09:59:30;32.33;;;16.55;;
73550;SDS011;61816;53.582;10.096;2023-03-01T10:02:11;39.65;;;16.63;;
73550;SDS011;61816;53.582;10.096;2023-03-01T10:04:53;35.10;;;16.23;;
73550;SDS011;61816;53.582;10.096;2023-03-01T10:10:21;28.17;;;16.40;;
73550;SDS011;61816;53.582;10.096;2023-03-01T10:12:52;27.92;;;15.10;;
73550;SDS011;61816;53.582;10.096;2023-03-01T10:15:20;29.65;;;14.52;;
73550;SDS011;61816;53.582;10.096;2023-03-01T10:18:00;36.03;;;14.70;;
73550;SDS011;61816;53.582;10.096;2023-03-01T10:20:42;30.45;;;14.85;;
73550;SDS011;61816;53.582;10.096;2023-03-01T10:23:14;25.13;;;13.70;;
73550;SDS011;61816;53.582;10.096;2023-03-01T10:28:16;25.00;;;12.50;;
73550;SDS011;61816;53.582;10.096;2023-03-01T10:30:54;28.67;;;14.00;;
73550;SDS011;61816;53.582;10.096;2023-03-01T10:33:29;26.63;;;12.32;;
73550;SDS011;61816;53.582;10.096;2023-03-01T10:35:57;26.63;;;12.52;;
73550;SDS011;61816;53.582;10.096;2023-03-01T10:38:22;29.60;;;12.43;;
73550;SDS011;61816;53.582;10.096;2023-03-01T10:40:59;22.38;;;11.20;;
73550;SDS011;61816;53.582;10.096;2023-03-01T10:43:49;26.90;;;13.25;;
73550;SDS011;61816;53.582;10.096;2023-03-01T10:51:32;27.90;;;12.52;;
73550;SDS011;61816;53.582;10.096;2023-03-01T10:53:58;24.50;;;13.13;;
73550;SDS011;61816;53.582;10.096;2023-03-01T10:56:23;23.08;;;13.20;;
73550;SDS011;61816;53.582;10.096;2023-03-01T10:59:00;22.30;;;12.27;;
73550;SDS011;61816;53.582;10.096;2023-03-01T11:01:29;29.52;;;13.82;;
73550;SDS011;61816;53.582;10.096;2023-03-01T11:04:09;27.75;;;12.13;;
73550;SDS011;61816;53.582;10.096;2023-03-01T11:06:38;26.02;;;13.07;;
73550;SDS011;61816;53.582;10.096;2023-03-01T11:09:18;30.00;;;13.32;;
73550;SDS011;61816;53.582;10.096;2023-03-01T11:11:53;19.52;;;12.23;;
73550;SDS011;61816;53.582;10.096;2023-03-01T11:14:21;21.27;;;11.40;;
73550;SDS011;61816;53.582;10.096;2023-03-01T11:16:49;24.13;;;12.30;;
73550;SDS011;61816;53.582;10.096;2023-03-01T11:19:23;21.13;;;11.75;;
73550;SDS011;61816;53.582;10.096;2023-03-01T11:24:22;23.75;;;11.80;;
73550;SDS011;61816;53.582;10.096;2023-03-01T11:26:54;20.15;;;11.00;;
73550;SDS011;61816;53.582;10.096;2023-03-01T11:29:32;20.60;;;11.10;;
73550;SDS011;61816;53.582;10.096;2023-03-01T11:32:08;13.70;;;8.70;;
73550;SDS011;61816;53.582;10.096;2023-03-01T11:34:45;22.17;;;9.95;;
73550;SDS011;61816;53.582;10.096;2023-03-01T11:37:22;18.02;;;9.95;;
73550;SDS011;61816;53.582;10.096;2023-03-01T11:40:03;19.70;;;9.88;;
73550;SDS011;61816;53.582;10.096;2023-03-01T11:45:30;16.27;;;9.25;;
73550;SDS011;61816;53.582;10.096;2023-03-01T11:48:27;17.80;;;10.75;;
73550;SDS011;61816;53.582;10.096;2023-03-01T11:51:21;21.52;;;11.75;;
73550;SDS011;61816;53.582;10.096;2023-03-01T11:56:54;19.85;;;11.60;;
73550;SDS011;61816;53.582;10.096;2023-03-01T12:08:16;17.05;;;9.50;;
73550;SDS011;61816;53.582;10.096;2023-03-01T12:13:43;15.25;;;10.05;;
73550;SDS011;61816;53.582;10.096;2023-03-01T12:19:51;20.27;;;10.32;;
73550;SDS011;61816;53.582;10.096;2023-03-01T12:22:30;20.83;;;10.45;;
73550;SDS011;61816;53.582;10.096;2023-03-01T12:28:24;12.90;;;8.73;;
73550;SDS011;61816;53.582;10.096;2023-03-01T12:39:51;13.70;;;8.02;;
73550;SDS011;61816;53.582;10.096;2023-03-01T12:42:44;17.35;;;9.07;;
73550;SDS011;61816;53.582;10.096;2023-03-01T12:45:31;13.63;;;8.20;;
73550;SDS011;61816;53.582;10.096;2023-03-01T12:50:40;11.07;;;6.70;;
73550;SDS011;61816;53.582;10.096;2023-03-01T12:53:17;18.00;;;7.80;;
73550;SDS011;61816;53.582;10.096;2023-03-01T12:55:48;14.45;;;7.13;;
73550;SDS011;61816;53.582;10.096;2023-03-01T12:58:34;13.20;;;7.57;;
73550;SDS011;61816;53.582;10.096;2023-03-01T13:17:56;13.43;;;8.40;;
73550;SDS011;61816;53.582;10.096;2023-03-01T13:20:25;16.70;;;8.60;;
73550;SDS011;61816;53.582;10.096;2023-03-01T13:23:02;13.98;;;8.32;;
73550;SDS011;61816;53.582;10.096;2023-03-01T13:25:31;15.32;;;8.40;;
73550;SDS011;61816;53.582;10.096;2023-03-01T13:30:59;26.42;;;14.05;;
73550;SDS011;61816;53.582;10.096;2023-03-01T13:35:54;14.82;;;7.65;;
73550;SDS011;61816;53.582;10.096;2023-03-01T13:41:16;16.65;;;8.65;;
73550;SDS011;61816;53.582;10.096;2023-03-01T13:44:10;14.88;;;7.05;;
73550;SDS011;61816;53.582;10.096;2023-03-01T13:46:38;12.77;;;7.30;;
73550;SDS011;61816;53.582;10.096;2023-03-01T13:49:03;12.43;;;6.57;;
73550;SDS011;61816;53.582;10.096;2023-03-01T13:51:29;10.50;;;6.22;;
73550;SDS011;61816;53.582;10.096;2023-03-01T13:53:55;9.75;;;5.63;;
73550;SDS011;61816;53.582;10.096;2023-03-01T13:56:29;7.88;;;4.38;;
73550;SDS011;61816;53.582;10.096;2023-03-01T13:59:05;7.43;;;4.18;;
73550;SDS011;61816;53.582;10.096;2023-03-01T14:01:38;18.52;;;9.57;;
73550;SDS011;61816;53.582;10.096;2023-03-01T14:04:14;18.52;;;5.07;;
73550;SDS011;61816;53.582;10.096;2023-03-01T14:06:46;8.73;;;5.70;;
73550;SDS011;61816;53.582;10.096;2023-03-01T14:09:16;10.13;;;5.97;;
73550;SDS011;61816;53.582;10.096;2023-03-01T14:14:23;8.20;;;5.05;;
73550;SDS011;61816;53.582;10.096;2023-03-01T14:17:41;8.80;;;4.88;;
73550;SDS011;61816;53.582;10.096;2023-03-01T14:20:24;11.35;;;5.15;;
73550;SDS011;61816;53.582;10.096;2023-03-01T14:22:57;10.13;;;5.00;;
73550;SDS011;61816;53.582;10.096;2023-03-01T14:30:40;11.73;;;4.97;;
73550;SDS011;61816;53.582;10.096;2023-03-01T14:33:17;9.25;;;6.00;;
73550;SDS011;61816;53.582;10.096;2023-03-01T14:35:52;9.27;;;5.68;;
73550;SDS011;61816;53.582;10.096;2023-03-01T14:38:30;8.27;;;5.10;;
73550;SDS011;61816;53.582;10.096;2023-03-01T14:40:57;9.80;;;6.35;;
73550;SDS011;61816;53.582;10.096;2023-03-01T14:43:26;7.13;;;5.07;;
73550;SDS011;61816;53.582;10.096;2023-03-01T14:45:54;9.27;;;5.55;;
73550;SDS011;61816;53.582;10.096;2023-03-01T14:48:19;9.75;;;5.10;;
73550;SDS011;61816;53.582;10.096;2023-03-01T14:50:46;9.45;;;6.00;;
73550;SDS011;61816;53.582;10.096;2023-03-01T14:53:16;10.98;;;6.10;;
73550;SDS011;61816;53.582;10.096;2023-03-01T14:55:49;11.98;;;6.40;;
73550;SDS011;61816;53.582;10.096;2023-03-01T14:58:21;11.80;;;6.95;;
73550;SDS011;61816;53.582;10.096;2023-03-01T15:00:59;10.32;;;6.70;;
73550;SDS011;61816;53.582;10.096;2023-03-01T15:03:27;9.27;;;6.03;;
73550;SDS011;61816;53.582;10.096;2023-03-01T15:08:25;11.40;;;6.18;;
73550;SDS011;61816;53.582;10.096;2023-03-01T15:10:56;8.88;;;5.45;;
73550;SDS011;61816;53.582;10.096;2023-03-01T15:13:29;8.60;;;5.38;;
73550;SDS011;61816;53.582;10.096;2023-03-01T15:16:15;33.05;;;17.98;;
73550;SDS011;61816;53.582;10.096;2023-03-01T15:18:46;7.68;;;4.95;;
73550;SDS011;61816;53.582;10.096;2023-03-01T15:21:25;8.52;;;4.55;;
73550;SDS011;61816;53.582;10.096;2023-03-01T15:23:57;11.52;;;4.88;;
73550;SDS011;61816;53.582;10.096;2023-03-01T15:26:44;6.38;;;4.45;;
73550;SDS011;61816;53.582;10.096;2023-03-01T15:29:19;7.45;;;4.63;;
73550;SDS011;61816;53.582;10.096;2023-03-01T15:31:59;7.75;;;4.53;;
73550;SDS011;61816;53.582;10.096;2023-03-01T15:34:49;8.90;;;5.45;;
73550;SDS011;61816;53.582;10.096;2023-03-01T15:43:36;8.77;;;4.65;;
73550;SDS011;61816;53.582;10.096;2023-03-01T15:49:20;8.10;;;5.53;;
73550;SDS011;61816;53.582;10.096;2023-03-01T15:52:01;13.00;;;6.65;;
73550;SDS011;61816;53.582;10.096;2023-03-01T15:54:27;10.73;;;6.75;;
73550;SDS011;61816;53.582;10.096;2023-03-01T15:56:54;13.50;;;7.18;;
73550;SDS011;61816;53.582;10.096;2023-03-01T15:59:19;17.63;;;6.53;;
73550;SDS011;61816;53.582;10.096;2023-03-01T16:01:46;13.45;;;6.72;;
73550;SDS011;61816;53.582;10.096;2023-03-01T16:04:14;10.25;;;5.78;;